createdAt,value
2019-01-05T00:00:09.326Z,8.38
2019-01-05T00:01:09.313Z,8.32
2019-01-05T00:02:09.326Z,8.36
2019-01-05T00:03:09.307Z,8.38
2019-01-05T00:04:09.322Z,8.49
2019-01-05T00:05:09.336Z,8.46
2019-01-05T00:06:09.385Z,8.38
2019-01-05T00:07:09.333Z,8.45
2019-01-05T00:08:09.373Z,8.38
2019-01-05T00:09:09.365Z,8.45
2019-01-05T00:10:09.336Z,8.49
2019-01-05T00:11:09.384Z,8.45
2019-01-05T00:12:09.402Z,8.45
2019-01-05T00:13:09.371Z,8.42
2019-01-05T00:14:09.368Z,8.38
2019-01-05T00:15:09.376Z,8.42
2019-01-05T00:16:09.363Z,8.38
2019-01-05T00:17:09.384Z,8.50
2019-01-05T00:18:09.394Z,8.44
2019-01-05T00:19:09.403Z,8.36
2019-01-05T00:20:09.411Z,8.49
2019-01-05T00:21:09.421Z,8.39
2019-01-05T00:22:09.425Z,8.44
2019-01-05T00:23:09.462Z,8.42
2019-01-05T00:24:09.394Z,8.36
2019-01-05T00:25:09.391Z,8.45
2019-01-05T00:26:09.405Z,8.42
2019-01-05T00:27:09.468Z,8.42
2019-01-05T00:28:09.414Z,8.46
2019-01-05T00:29:09.472Z,8.45
2019-01-05T00:30:09.422Z,8.50
2019-01-05T00:31:09.432Z,8.53
2019-01-05T00:32:09.441Z,8.45
2019-01-05T00:33:09.443Z,8.49
2019-01-05T00:34:09.562Z,8.53
2019-01-05T00:35:09.506Z,8.50
2019-01-05T00:36:09.494Z,8.53
2019-01-05T00:37:09.501Z,8.56
2019-01-05T00:38:09.516Z,8.56
2019-01-05T00:39:09.504Z,8.54
2019-01-05T00:40:09.519Z,8.56
2019-01-05T00:41:10.105Z,8.52
2019-01-05T00:42:09.483Z,8.56
2019-01-05T00:43:09.496Z,8.53
2019-01-05T00:44:09.499Z,8.53
2019-01-05T00:45:09.534Z,8.56
2019-01-05T00:46:09.533Z,8.56
2019-01-05T00:47:09.547Z,8.61
2019-01-05T00:48:09.499Z,8.64
2019-01-05T00:49:09.580Z,8.61
2019-01-05T00:50:09.585Z,8.46
2019-01-05T00:51:09.580Z,8.56
2019-01-05T00:52:09.563Z,8.56
2019-01-05T00:53:09.571Z,8.52
2019-01-05T00:54:09.984Z,8.54
2019-01-05T00:55:09.637Z,8.54
2019-01-05T00:56:10.098Z,8.56
2019-01-05T00:57:09.937Z,8.44
2019-01-05T00:58:09.551Z,8.46
2019-01-05T00:59:09.558Z,8.46
2019-01-05T01:00:09.605Z,8.52
2019-01-05T01:01:09.590Z,8.57
2019-01-05T01:02:09.567Z,8.54
2019-01-05T01:03:09.557Z,8.53
2019-01-05T01:04:09.584Z,8.60
2019-01-05T01:05:09.583Z,8.60
2019-01-05T01:06:09.661Z,8.61
2019-01-05T01:07:09.598Z,8.59
2019-01-05T01:08:09.622Z,8.63
2019-01-05T01:09:09.589Z,8.59
2019-01-05T01:10:09.581Z,8.63
2019-01-05T01:11:09.666Z,8.54
2019-01-05T01:12:09.626Z,8.60
2019-01-05T01:13:09.804Z,8.61
2019-01-05T01:14:09.617Z,8.59
2019-01-05T01:15:09.614Z,8.71
2019-01-05T01:16:09.636Z,8.72
2019-01-05T01:17:09.643Z,8.59
2019-01-05T01:18:09.652Z,8.63
2019-01-05T01:19:09.637Z,8.72
2019-01-05T01:20:09.659Z,8.63
2019-01-05T01:21:09.630Z,8.71
2019-01-05T01:22:09.668Z,8.75
2019-01-05T01:23:09.660Z,8.66
2019-01-05T01:24:09.677Z,8.64
2019-01-05T01:25:09.655Z,8.68
2019-01-05T01:26:09.665Z,8.56
2019-01-05T01:27:09.768Z,8.60
2019-01-05T01:28:09.679Z,8.68
2019-01-05T01:29:09.669Z,8.59
2019-01-05T01:30:09.677Z,8.68
2019-01-05T01:31:09.692Z,8.72
2019-01-05T01:32:09.720Z,8.66
2019-01-05T01:33:09.752Z,8.66
2019-01-05T01:34:09.760Z,8.66
2019-01-05T01:35:09.700Z,8.63
2019-01-05T01:36:09.704Z,8.72
2019-01-05T01:37:09.730Z,8.68
2019-01-05T01:38:09.773Z,8.71
2019-01-05T01:39:09.749Z,8.72
2019-01-05T01:40:09.705Z,8.71
2019-01-05T01:41:09.807Z,8.71
2019-01-05T01:42:09.729Z,8.60
2019-01-05T01:43:09.769Z,8.64
2019-01-05T01:44:09.816Z,8.68
2019-01-05T01:45:09.782Z,8.69
2019-01-05T01:46:09.803Z,8.69
2019-01-05T01:47:09.796Z,8.74
2019-01-05T01:48:09.811Z,8.78
2019-01-05T01:49:09.858Z,8.75
2019-01-05T01:50:09.803Z,8.84
2019-01-05T01:51:09.782Z,8.77
2019-01-05T01:52:09.767Z,8.86
2019-01-05T01:53:09.836Z,8.82
2019-01-05T01:54:09.882Z,8.92
2019-01-05T01:55:09.818Z,8.82
2019-01-05T01:56:09.816Z,8.84
2019-01-05T01:57:09.847Z,8.82
2019-01-05T01:58:09.794Z,8.82
2019-01-05T01:59:09.868Z,8.81
2019-01-05T02:00:09.865Z,8.84
2019-01-05T02:01:09.845Z,8.81
2019-01-05T02:02:09.859Z,8.72
2019-01-05T02:03:09.837Z,8.84
2019-01-05T02:04:09.875Z,8.72
2019-01-05T02:05:09.887Z,8.78
2019-01-05T02:06:09.829Z,8.79
2019-01-05T02:07:09.823Z,8.79
2019-01-05T02:08:09.855Z,8.90
2019-01-05T02:09:09.886Z,8.86
2019-01-05T02:10:09.960Z,8.81
2019-01-05T02:11:09.877Z,8.87
2019-01-05T02:12:09.892Z,8.81
2019-01-05T02:13:09.890Z,8.99
2019-01-05T02:14:09.905Z,8.87
2019-01-05T02:15:09.885Z,8.90
2019-01-05T02:16:09.904Z,8.87
2019-01-05T02:17:09.926Z,8.96
2019-01-05T02:18:09.892Z,8.89
2019-01-05T02:19:09.901Z,8.93
2019-01-05T02:20:09.943Z,8.89
2019-01-05T02:21:09.957Z,8.84
2019-01-05T02:22:09.979Z,8.92
2019-01-05T02:23:09.937Z,8.90
2019-01-05T02:24:10.018Z,9.00
2019-01-05T02:25:09.933Z,8.93
2019-01-05T02:26:09.992Z,9.02
2019-01-05T02:27:09.927Z,9.00
2019-01-05T02:28:09.975Z,8.89
2019-01-05T02:29:09.947Z,8.99
2019-01-05T02:30:09.932Z,8.96
2019-01-05T02:31:09.975Z,8.89
2019-01-05T02:32:10.002Z,8.89
2019-01-05T02:33:09.969Z,8.86
2019-01-05T02:34:10.003Z,8.95
2019-01-05T02:35:10.005Z,9.00
2019-01-05T02:36:09.968Z,8.95
2019-01-05T02:37:09.977Z,8.96
2019-01-05T02:38:09.980Z,9.03
2019-01-05T02:39:09.990Z,9.05
2019-01-05T02:40:10.017Z,9.12
2019-01-05T02:41:10.007Z,9.12
2019-01-05T02:42:10.000Z,9.09
2019-01-05T02:43:10.178Z,9.15
2019-01-05T02:44:10.040Z,9.08
2019-01-05T02:45:10.061Z,9.15
2019-01-05T02:46:10.020Z,9.03
2019-01-05T02:47:10.066Z,9.15
2019-01-05T02:48:10.057Z,9.09
2019-01-05T02:49:10.102Z,9.13
2019-01-05T02:50:10.055Z,9.11
2019-01-05T02:51:10.029Z,9.09
2019-01-05T02:52:10.030Z,9.16
2019-01-05T02:53:10.042Z,9.16
2019-01-05T02:54:10.046Z,9.05
2019-01-05T02:55:10.108Z,9.11
2019-01-05T02:56:10.067Z,9.15
2019-01-05T02:57:10.054Z,9.11
2019-01-05T02:58:10.121Z,9.15
2019-01-05T02:59:10.118Z,9.11
2019-01-05T03:00:10.073Z,9.18
2019-01-05T03:01:11.013Z,9.24
2019-01-05T03:02:10.079Z,9.03
2019-01-05T03:03:10.447Z,9.21
2019-01-05T03:04:10.127Z,9.12
2019-01-05T03:05:10.092Z,9.16
2019-01-05T03:06:10.104Z,9.15
2019-01-05T03:07:10.093Z,9.24
2019-01-05T03:08:10.095Z,9.13
2019-01-05T03:09:10.090Z,9.22
2019-01-05T03:10:10.154Z,9.12
2019-01-05T03:11:10.101Z,9.15
2019-01-05T03:12:10.211Z,9.15
2019-01-05T03:13:10.206Z,9.16
2019-01-05T03:14:10.120Z,9.15
2019-01-05T03:15:10.143Z,9.16
2019-01-05T03:16:10.136Z,9.12
2019-01-05T03:17:10.143Z,9.22
2019-01-05T03:18:11.023Z,9.21
2019-01-05T03:19:10.203Z,9.24
2019-01-05T03:20:10.166Z,9.18
2019-01-05T03:21:10.204Z,9.16
2019-01-05T03:22:10.187Z,9.16
2019-01-05T03:23:10.177Z,9.15
2019-01-05T03:24:10.422Z,9.13
2019-01-05T03:25:10.170Z,9.27
2019-01-05T03:26:10.224Z,9.19
2019-01-05T03:27:10.210Z,9.13
2019-01-05T03:28:10.225Z,9.12
2019-01-05T03:29:10.238Z,9.12
2019-01-05T03:30:10.218Z,9.18
2019-01-05T03:31:10.232Z,9.11
2019-01-05T03:32:11.114Z,9.09
2019-01-05T03:33:10.251Z,9.11
2019-01-05T03:34:10.277Z,9.09
2019-01-05T03:35:10.333Z,9.13
2019-01-05T03:36:10.237Z,9.09
2019-01-05T03:37:10.246Z,9.02
2019-01-05T03:38:10.234Z,9.02
2019-01-05T03:39:10.333Z,8.90
2019-01-05T03:40:10.302Z,9.00
2019-01-05T03:41:10.306Z,9.02
2019-01-05T03:42:10.253Z,9.05
2019-01-05T03:43:10.543Z,9.05
2019-01-05T03:44:10.292Z,8.96
2019-01-05T03:45:10.276Z,9.00
2019-01-05T03:46:10.292Z,8.87
2019-01-05T03:47:10.272Z,8.87
2019-01-05T03:48:10.286Z,8.93
2019-01-05T03:49:10.304Z,8.81
2019-01-05T03:50:10.483Z,8.82
2019-01-05T03:51:10.299Z,8.93
2019-01-05T03:52:10.304Z,8.86
2019-01-05T03:53:10.467Z,8.71
2019-01-05T03:54:10.325Z,8.81
2019-01-05T03:55:10.345Z,8.86
2019-01-05T03:56:10.305Z,8.82
2019-01-05T03:57:10.321Z,8.86
2019-01-05T03:58:10.358Z,8.78
2019-01-05T03:59:10.398Z,8.95
2019-01-05T04:00:10.342Z,8.93
2019-01-05T04:01:10.417Z,8.79
2019-01-05T04:02:10.733Z,8.81
2019-01-05T04:03:10.450Z,8.81
2019-01-05T04:04:10.408Z,8.81
2019-01-05T04:05:10.349Z,8.84
2019-01-05T04:06:10.367Z,8.81
2019-01-05T04:07:10.381Z,8.95
2019-01-05T04:08:10.601Z,8.97
2019-01-05T04:09:10.473Z,8.92
2019-01-05T04:10:10.372Z,8.95
2019-01-05T04:11:10.379Z,8.96
2019-01-05T04:12:10.419Z,8.92
2019-01-05T04:13:10.474Z,8.95
2019-01-05T04:14:10.453Z,8.84
2019-01-05T04:15:10.542Z,8.87
2019-01-05T04:16:10.423Z,8.87
2019-01-05T04:17:10.604Z,8.89
2019-01-05T04:18:10.526Z,8.87
2019-01-05T04:19:10.649Z,8.96
2019-01-05T04:20:10.471Z,8.86
2019-01-05T04:21:10.466Z,8.93
2019-01-05T04:22:10.496Z,8.87
2019-01-05T04:23:10.436Z,8.92
2019-01-05T04:24:10.440Z,8.90
2019-01-05T04:25:10.425Z,8.90
2019-01-05T04:26:10.513Z,8.95
2019-01-05T04:27:10.457Z,9.00
2019-01-05T04:28:10.441Z,8.97
2019-01-05T04:29:10.444Z,9.00
2019-01-05T04:30:10.461Z,8.96
2019-01-05T04:31:10.471Z,9.02
2019-01-05T04:32:10.480Z,8.90
2019-01-05T04:33:10.516Z,9.03
2019-01-05T04:34:10.504Z,9.00
2019-01-05T04:35:10.509Z,8.87
2019-01-05T04:36:10.494Z,8.97
2019-01-05T04:37:10.507Z,8.99
2019-01-05T04:38:10.492Z,9.00
2019-01-05T04:39:10.498Z,8.92
2019-01-05T04:40:10.515Z,9.02
2019-01-05T04:41:10.540Z,9.03
2019-01-05T04:42:10.549Z,8.99
2019-01-05T04:43:10.554Z,8.93
2019-01-05T04:44:10.538Z,8.96
2019-01-05T04:45:10.578Z,8.97
2019-01-05T04:46:10.531Z,8.99
2019-01-05T04:47:10.576Z,9.00
2019-01-05T04:48:10.688Z,9.11
2019-01-05T04:49:10.546Z,9.11
2019-01-05T04:50:10.580Z,9.12
2019-01-05T04:51:10.608Z,9.11
2019-01-05T04:52:10.598Z,9.12
2019-01-05T04:53:10.609Z,9.09
2019-01-05T04:54:10.632Z,9.05
2019-01-05T04:55:10.615Z,9.11
2019-01-05T04:56:10.579Z,9.11
2019-01-05T04:57:10.659Z,9.08
2019-01-05T04:58:10.611Z,9.18
2019-01-05T04:59:10.703Z,9.24
2019-01-05T05:00:10.613Z,9.22
2019-01-05T05:01:10.631Z,9.22
2019-01-05T05:02:10.691Z,9.27
2019-01-05T05:03:10.597Z,9.16
2019-01-05T05:04:10.624Z,9.24
2019-01-05T05:05:10.664Z,9.18
2019-01-05T05:06:10.677Z,9.15
2019-01-05T05:07:10.636Z,9.26
2019-01-05T05:08:10.660Z,9.27
2019-01-05T05:09:10.672Z,9.26
2019-01-05T05:10:11.089Z,9.24
2019-01-05T05:11:10.656Z,9.22
2019-01-05T05:12:10.717Z,9.22
2019-01-05T05:13:10.738Z,9.24
2019-01-05T05:14:10.702Z,9.31
2019-01-05T05:15:10.659Z,9.34
2019-01-05T05:16:10.700Z,9.30
2019-01-05T05:17:10.725Z,9.27
2019-01-05T05:18:10.696Z,9.27
2019-01-05T05:19:10.707Z,9.22
2019-01-05T05:20:10.690Z,9.22
2019-01-05T05:21:10.747Z,9.26
2019-01-05T05:22:10.747Z,9.19
2019-01-05T05:23:10.685Z,9.24
2019-01-05T05:24:10.779Z,9.22
2019-01-05T05:25:10.733Z,9.22
2019-01-05T05:26:10.949Z,9.24
2019-01-05T05:27:10.791Z,9.29
2019-01-05T05:28:10.768Z,9.26
2019-01-05T05:29:10.755Z,9.31
2019-01-05T05:30:10.782Z,9.22
2019-01-05T05:31:10.740Z,9.27
2019-01-05T05:32:10.791Z,9.30
2019-01-05T05:33:10.733Z,9.26
2019-01-05T05:34:10.803Z,9.30
2019-01-05T05:35:10.762Z,9.26
2019-01-05T05:36:10.789Z,9.29
2019-01-05T05:37:10.794Z,9.29
2019-01-05T05:38:10.876Z,9.27
2019-01-05T05:39:10.799Z,9.33
2019-01-05T05:40:10.781Z,9.29
2019-01-05T05:41:10.808Z,9.22
2019-01-05T05:42:10.800Z,9.24
2019-01-05T05:43:10.817Z,9.18
2019-01-05T05:44:10.892Z,9.22
2019-01-05T05:45:10.821Z,9.24
2019-01-05T05:46:10.783Z,9.30
2019-01-05T05:47:10.810Z,9.33
2019-01-05T05:48:10.842Z,9.19
2019-01-05T05:49:10.959Z,9.26
2019-01-05T05:50:10.806Z,9.19
2019-01-05T05:51:10.860Z,9.18
2019-01-05T05:52:10.816Z,9.19
2019-01-05T05:53:10.834Z,9.22
2019-01-05T05:54:10.915Z,9.21
2019-01-05T05:55:10.849Z,9.16
2019-01-05T05:56:10.907Z,9.19
2019-01-05T05:57:10.849Z,9.33
2019-01-05T05:58:10.868Z,9.34
2019-01-05T05:59:10.876Z,9.24
2019-01-05T06:00:10.875Z,9.26
2019-01-05T06:01:10.877Z,9.22
2019-01-05T06:02:11.035Z,9.24
2019-01-05T06:03:10.886Z,9.31
2019-01-05T06:04:10.898Z,9.27
2019-01-05T06:05:10.952Z,9.26
2019-01-05T06:06:10.950Z,9.26
2019-01-05T06:07:10.899Z,9.30
2019-01-05T06:08:10.959Z,9.30
2019-01-05T06:09:10.946Z,9.27
2019-01-05T06:10:10.965Z,9.33
2019-01-05T06:11:10.941Z,9.45
2019-01-05T06:12:10.978Z,9.47
2019-01-05T06:13:10.951Z,9.45
2019-01-05T06:14:11.000Z,9.37
2019-01-05T06:15:10.971Z,9.31
2019-01-05T06:16:11.050Z,9.27
2019-01-05T06:17:10.940Z,9.31
2019-01-05T06:18:11.038Z,9.29
2019-01-05T06:19:10.936Z,9.37
2019-01-05T06:20:10.987Z,9.29
2019-01-05T06:21:10.958Z,9.27
2019-01-05T06:22:11.008Z,9.33
2019-01-05T06:23:10.996Z,9.33
2019-01-05T06:24:11.004Z,9.33
2019-01-05T06:25:11.081Z,9.29
2019-01-05T06:26:10.983Z,9.33
2019-01-05T06:27:11.050Z,9.37
2019-01-05T06:28:10.988Z,9.33
2019-01-05T06:29:11.547Z,9.39
2019-01-05T06:30:11.040Z,9.34
2019-01-05T06:31:11.026Z,9.31
2019-01-05T06:32:11.016Z,9.33
2019-01-05T06:33:11.045Z,9.36
2019-01-05T06:34:11.086Z,9.37
2019-01-05T06:35:11.050Z,9.30
2019-01-05T06:36:11.086Z,9.33
2019-01-05T06:37:11.049Z,9.27
2019-01-05T06:38:11.049Z,9.29
2019-01-05T06:39:11.031Z,9.29
2019-01-05T06:40:11.070Z,9.39
2019-01-05T06:41:11.078Z,9.33
2019-01-05T06:42:11.075Z,9.36
2019-01-05T06:43:11.053Z,9.49
2019-01-05T06:44:11.059Z,9.42
2019-01-05T06:45:11.135Z,9.33
2019-01-05T06:46:11.119Z,9.48
2019-01-05T06:47:11.087Z,9.48
2019-01-05T06:48:11.091Z,9.44
2019-01-05T06:49:11.375Z,9.33
2019-01-05T06:50:11.138Z,9.36
2019-01-05T06:51:11.150Z,9.31
2019-01-05T06:52:11.169Z,9.33
2019-01-05T06:53:11.115Z,9.31
2019-01-05T06:54:11.151Z,9.33
2019-01-05T06:55:11.109Z,9.29
2019-01-05T06:56:11.125Z,9.33
2019-01-05T06:57:11.142Z,9.33
2019-01-05T06:58:11.146Z,9.33
2019-01-05T06:59:11.139Z,9.30
2019-01-05T07:00:11.135Z,9.34
2019-01-05T07:01:11.160Z,9.34
2019-01-05T07:02:11.161Z,9.30
2019-01-05T07:03:11.128Z,9.29
2019-01-05T07:04:11.132Z,9.16
2019-01-05T07:05:11.249Z,9.24
2019-01-05T07:06:11.145Z,9.27
2019-01-05T07:07:11.187Z,9.19
2019-01-05T07:08:11.159Z,9.16
2019-01-05T07:09:11.171Z,9.30
2019-01-05T07:10:11.173Z,9.26
2019-01-05T07:11:12.447Z,9.29
2019-01-05T07:12:11.370Z,9.18
2019-01-05T07:13:11.195Z,9.29
2019-01-05T07:14:11.347Z,9.21
2019-01-05T07:15:11.346Z,9.21
2019-01-05T07:16:11.407Z,9.27
2019-01-05T07:17:11.367Z,9.29
2019-01-05T07:18:11.216Z,9.24
2019-01-05T07:19:11.213Z,9.24
2019-01-05T07:20:11.213Z,9.29
2019-01-05T07:21:11.211Z,9.27
2019-01-05T07:22:11.245Z,9.26
2019-01-05T07:23:11.236Z,9.27
2019-01-05T07:24:11.233Z,9.33
2019-01-05T07:25:11.245Z,9.34
2019-01-05T07:26:11.244Z,9.29
2019-01-05T07:27:11.270Z,9.26
2019-01-05T07:28:11.245Z,9.26
2019-01-05T07:29:11.304Z,9.33
2019-01-05T07:30:11.260Z,9.31
2019-01-05T07:31:11.278Z,9.29
2019-01-05T07:32:11.329Z,9.31
2019-01-05T07:33:11.307Z,9.31
2019-01-05T07:34:11.303Z,9.37
2019-01-05T07:35:11.284Z,9.37
2019-01-05T07:36:11.300Z,9.27
2019-01-05T07:37:11.354Z,9.19
2019-01-05T07:38:11.318Z,9.26
2019-01-05T07:39:11.307Z,9.22
2019-01-05T07:40:11.342Z,9.21
2019-01-05T07:41:11.326Z,9.22
2019-01-05T07:42:11.363Z,9.26
2019-01-05T07:43:11.394Z,9.21
2019-01-05T07:44:11.341Z,9.24
2019-01-05T07:45:11.343Z,9.27
2019-01-05T07:46:11.336Z,9.33
2019-01-05T07:47:11.461Z,9.31
2019-01-05T07:48:11.346Z,9.31
2019-01-05T07:49:11.345Z,9.29
2019-01-05T07:50:11.382Z,9.37
2019-01-05T07:51:11.410Z,9.36
2019-01-05T07:52:11.363Z,9.29
2019-01-05T07:53:11.389Z,9.33
2019-01-05T07:54:11.388Z,9.29
2019-01-05T07:55:11.523Z,9.31
2019-01-05T07:56:11.394Z,9.27
2019-01-05T07:57:11.409Z,9.29
2019-01-05T07:58:11.443Z,9.31
2019-01-05T07:59:11.409Z,9.30
2019-01-05T08:00:11.400Z,9.27
2019-01-05T08:01:11.461Z,9.36
2019-01-05T08:02:11.424Z,9.33
2019-01-05T08:03:11.437Z,9.29
2019-01-05T08:04:11.483Z,9.36
2019-01-05T08:05:11.439Z,9.31
2019-01-05T08:06:11.474Z,9.33
2019-01-05T08:07:11.491Z,9.33
2019-01-05T08:08:11.484Z,9.42
2019-01-05T08:09:11.469Z,9.42
2019-01-05T08:10:11.477Z,9.36
2019-01-05T08:11:11.447Z,9.42
2019-01-05T08:12:11.498Z,9.45
2019-01-05T08:13:11.473Z,9.40
2019-01-05T08:14:11.498Z,9.39
2019-01-05T08:15:11.515Z,9.45
2019-01-05T08:16:11.470Z,9.48
2019-01-05T08:17:11.485Z,9.54
2019-01-05T08:18:11.486Z,9.47
2019-01-05T08:19:11.525Z,9.51
2019-01-05T08:20:11.509Z,9.51
2019-01-05T08:21:11.510Z,9.48
2019-01-05T08:22:11.533Z,9.55
2019-01-05T08:23:11.517Z,9.59
2019-01-05T08:24:11.517Z,9.59
2019-01-05T08:25:11.627Z,9.55
2019-01-05T08:26:11.527Z,9.59
2019-01-05T08:27:11.534Z,9.56
2019-01-05T08:28:11.540Z,9.62
2019-01-05T08:29:11.559Z,9.72
2019-01-05T08:30:11.539Z,9.82
2019-01-05T08:31:11.586Z,9.81
2019-01-05T08:32:11.564Z,9.95
2019-01-05T08:33:11.554Z,9.99
2019-01-05T08:34:11.617Z,9.92
2019-01-05T08:35:11.607Z,9.94
2019-01-05T08:36:11.714Z,10.12
2019-01-05T08:37:11.585Z,10.05
2019-01-05T08:38:11.597Z,10.15
2019-01-05T08:39:11.587Z,10.18
2019-01-05T08:40:11.654Z,10.17
2019-01-05T08:41:11.600Z,10.23
2019-01-05T08:42:11.608Z,10.30
2019-01-05T08:43:11.613Z,10.36
2019-01-05T08:44:11.609Z,10.38
2019-01-05T08:45:11.634Z,10.46
2019-01-05T08:46:11.646Z,10.46
2019-01-05T08:47:12.052Z,10.49
2019-01-05T08:48:11.653Z,10.48
2019-01-05T08:49:11.640Z,10.38
2019-01-05T08:50:11.999Z,10.27
2019-01-05T08:51:11.696Z,10.33
2019-01-05T08:52:11.666Z,10.30
2019-01-05T08:53:11.663Z,10.09
2019-01-05T08:54:11.718Z,10.13
2019-01-05T08:55:11.685Z,10.12
2019-01-05T08:56:11.690Z,10.18
2019-01-05T08:57:11.721Z,10.10
2019-01-05T08:58:11.689Z,10.27
2019-01-05T08:59:11.730Z,10.24
2019-01-05T09:00:11.785Z,10.07
2019-01-05T09:01:11.756Z,10.09
2019-01-05T09:02:11.742Z,10.12
2019-01-05T09:03:11.744Z,10.20
2019-01-05T09:04:11.711Z,10.10
2019-01-05T09:05:11.763Z,10.00
2019-01-05T09:06:11.768Z,10.12
2019-01-05T09:07:11.735Z,10.06
2019-01-05T09:08:11.753Z,10.00
2019-01-05T09:09:11.756Z,10.07
2019-01-05T09:10:11.753Z,10.07
2019-01-05T09:11:11.748Z,10.00
2019-01-05T09:12:11.850Z,9.94
2019-01-05T09:13:11.789Z,10.05
2019-01-05T09:14:11.817Z,9.91
2019-01-05T09:15:11.892Z,9.90
2019-01-05T09:16:11.844Z,9.92
2019-01-05T09:17:11.805Z,10.00
2019-01-05T09:18:11.818Z,10.06
2019-01-05T09:19:11.859Z,10.07
2019-01-05T09:20:11.816Z,10.12
2019-01-05T09:21:11.828Z,10.10
2019-01-05T09:22:11.813Z,10.06
2019-01-05T09:23:11.805Z,9.97
2019-01-05T09:24:11.851Z,10.10
2019-01-05T09:25:11.838Z,10.09
2019-01-05T09:26:11.962Z,10.05
2019-01-05T09:27:11.900Z,10.12
2019-01-05T09:28:11.868Z,10.15
2019-01-05T09:29:11.857Z,10.15
2019-01-05T09:30:11.918Z,10.20
2019-01-05T09:31:11.856Z,10.13
2019-01-05T09:32:11.939Z,10.18
2019-01-05T09:33:11.961Z,10.17
2019-01-05T09:34:11.897Z,10.05
2019-01-05T09:35:11.860Z,10.05
2019-01-05T09:36:11.877Z,9.91
2019-01-05T09:37:11.912Z,9.91
2019-01-05T09:38:11.909Z,9.88
2019-01-05T09:39:11.889Z,9.97
2019-01-05T09:40:11.914Z,9.90
2019-01-05T09:41:11.952Z,9.92
2019-01-05T09:42:11.906Z,9.91
2019-01-05T09:43:11.947Z,9.97
2019-01-05T09:44:11.921Z,9.90
2019-01-05T09:45:11.916Z,9.92
2019-01-05T09:46:11.946Z,9.92
2019-01-05T09:47:11.984Z,10.07
2019-01-05T09:48:11.990Z,10.00
2019-01-05T09:49:11.950Z,10.06
2019-01-05T09:50:11.940Z,9.99
2019-01-05T09:51:11.950Z,9.94
2019-01-05T09:52:11.945Z,10.02
2019-01-05T09:53:11.957Z,9.92
2019-01-05T09:54:11.987Z,10.05
2019-01-05T09:55:11.965Z,10.00
2019-01-05T09:56:11.986Z,10.02
2019-01-05T09:57:11.981Z,10.12
2019-01-05T09:58:12.000Z,10.09
2019-01-05T09:59:11.981Z,10.12
2019-01-05T10:00:12.005Z,10.12
2019-01-05T10:01:12.015Z,10.10
2019-01-05T10:02:11.999Z,10.15
2019-01-05T10:03:12.012Z,10.20
2019-01-05T10:04:12.014Z,10.13
2019-01-05T10:05:12.102Z,10.25
2019-01-05T10:06:12.019Z,10.15
2019-01-05T10:07:12.031Z,10.25
2019-01-05T10:08:12.035Z,10.24
2019-01-05T10:09:12.041Z,10.28
2019-01-05T10:10:12.079Z,10.13
2019-01-05T10:11:12.194Z,10.12
2019-01-05T10:12:12.092Z,10.13
2019-01-05T10:13:12.051Z,10.24
2019-01-05T10:14:12.114Z,10.23
2019-01-05T10:15:12.149Z,10.27
2019-01-05T10:16:12.086Z,10.25
2019-01-05T10:17:12.107Z,10.18
2019-01-05T10:18:12.077Z,10.21
2019-01-05T10:19:12.108Z,10.12
2019-01-05T10:20:12.119Z,10.27
2019-01-05T10:21:12.309Z,10.15
2019-01-05T10:22:12.144Z,10.20
2019-01-05T10:23:12.142Z,10.23
2019-01-05T10:24:12.122Z,10.27
2019-01-05T10:25:12.233Z,10.25
2019-01-05T10:26:12.154Z,10.27
2019-01-05T10:27:12.133Z,10.30
2019-01-05T10:28:12.579Z,10.34
2019-01-05T10:29:12.157Z,10.48
2019-01-05T10:30:12.144Z,10.48
2019-01-05T10:31:12.153Z,10.45
2019-01-05T10:32:12.157Z,10.42
2019-01-05T10:33:12.232Z,10.49
2019-01-05T10:34:12.249Z,10.49
2019-01-05T10:35:12.168Z,10.33
2019-01-05T10:36:12.186Z,10.38
2019-01-05T10:37:12.190Z,10.30
2019-01-05T10:38:12.293Z,10.34
2019-01-05T10:39:12.195Z,10.49
2019-01-05T10:40:13.058Z,10.59
2019-01-05T10:41:12.210Z,10.61
2019-01-05T10:42:12.208Z,10.59
2019-01-05T10:43:12.224Z,10.69
2019-01-05T10:44:12.276Z,10.83
2019-01-05T10:45:12.229Z,10.92
2019-01-05T10:46:12.253Z,10.80
2019-01-05T10:47:12.308Z,10.77
2019-01-05T10:48:12.272Z,10.82
2019-01-05T10:49:12.240Z,10.79
2019-01-05T10:50:12.243Z,10.79
2019-01-05T10:51:12.287Z,10.75
2019-01-05T10:52:12.337Z,10.71
2019-01-05T10:53:12.305Z,10.69
2019-01-05T10:54:12.315Z,10.76
2019-01-05T10:55:12.279Z,10.72
2019-01-05T10:56:12.349Z,10.75
2019-01-05T10:57:12.309Z,10.69
2019-01-05T10:58:12.323Z,10.65
2019-01-05T10:59:12.297Z,10.72
2019-01-05T11:00:12.306Z,10.69
2019-01-05T11:01:12.340Z,10.72
2019-01-05T11:02:12.413Z,10.69
2019-01-05T11:03:12.335Z,10.68
2019-01-05T11:04:12.343Z,10.67
2019-01-05T11:05:12.360Z,10.69
2019-01-05T11:06:12.344Z,10.71
2019-01-05T11:07:12.369Z,10.68
2019-01-05T11:08:12.422Z,10.68
2019-01-05T11:09:12.453Z,10.64
2019-01-05T11:10:12.399Z,10.51
2019-01-05T11:11:12.384Z,10.57
2019-01-05T11:12:12.381Z,10.59
2019-01-05T11:13:12.409Z,10.62
2019-01-05T11:14:12.468Z,10.67
2019-01-05T11:15:12.374Z,10.72
2019-01-05T11:16:12.527Z,10.58
2019-01-05T11:17:12.450Z,10.58
2019-01-05T11:18:12.413Z,10.45
2019-01-05T11:19:12.466Z,10.58
2019-01-05T11:20:12.448Z,10.57
2019-01-05T11:21:12.454Z,10.68
2019-01-05T11:22:12.443Z,10.61
2019-01-05T11:23:12.477Z,10.62
2019-01-05T11:24:12.691Z,10.72
2019-01-05T11:25:12.492Z,10.67
2019-01-05T11:26:12.477Z,10.76
2019-01-05T11:27:12.450Z,10.71
2019-01-05T11:28:12.471Z,10.69
2019-01-05T11:29:12.514Z,10.69
2019-01-05T11:30:12.490Z,10.77
2019-01-05T11:31:12.469Z,10.71
2019-01-05T11:32:12.468Z,10.71
2019-01-05T11:33:12.518Z,10.86
2019-01-05T11:34:12.514Z,10.87
2019-01-05T11:35:12.536Z,10.89
2019-01-05T11:36:12.572Z,10.95
2019-01-05T11:37:12.519Z,11.00
2019-01-05T11:38:12.525Z,10.79
2019-01-05T11:39:12.521Z,10.79
2019-01-05T11:40:12.613Z,10.79
2019-01-05T11:41:12.528Z,10.84
2019-01-05T11:42:12.528Z,10.89
2019-01-05T11:43:12.546Z,10.86
2019-01-05T11:44:12.652Z,10.89
2019-01-05T11:45:12.639Z,10.79
2019-01-05T11:46:12.550Z,10.86
2019-01-05T11:47:12.551Z,10.79
2019-01-05T11:48:12.629Z,10.82
2019-01-05T11:49:12.583Z,10.69
2019-01-05T11:50:12.846Z,10.86
2019-01-05T11:51:12.681Z,10.94
2019-01-05T11:52:12.694Z,10.94
2019-01-05T11:53:12.594Z,10.89
2019-01-05T11:54:12.615Z,10.92
2019-01-05T11:55:12.704Z,10.86
2019-01-05T11:56:12.743Z,10.71
2019-01-05T11:57:12.767Z,10.84
2019-01-05T11:58:12.671Z,10.83
2019-01-05T11:59:12.620Z,10.82
2019-01-05T12:00:12.693Z,10.82
2019-01-05T12:01:12.703Z,10.77
2019-01-05T12:02:12.659Z,10.75
2019-01-05T12:03:12.671Z,10.76
2019-01-05T14:36:29.069Z,9.56
2019-01-05T14:37:24.905Z,9.55
2019-01-05T14:38:25.713Z,9.44
2019-01-05T14:39:26.136Z,9.51
2019-01-05T14:40:25.637Z,9.44
2019-01-05T14:41:25.017Z,9.52
2019-01-05T14:42:24.926Z,9.45
2019-01-05T14:43:24.899Z,9.52
2019-01-05T14:44:25.041Z,9.54
2019-01-05T14:45:24.938Z,9.51
2019-01-05T14:46:25.019Z,9.40
2019-01-05T14:47:26.638Z,9.42
2019-01-05T14:48:26.067Z,9.37
2019-01-05T14:49:25.798Z,9.47
2019-01-05T14:50:25.022Z,9.45
2019-01-05T14:51:25.071Z,9.45
2019-01-05T14:52:25.089Z,9.45
2019-01-05T14:53:25.178Z,9.45
2019-01-05T14:54:27.730Z,9.52
2019-01-05T14:55:25.562Z,9.37
2019-01-05T14:56:26.647Z,9.47
2019-01-05T14:57:25.435Z,9.49
2019-01-05T14:58:25.377Z,9.45
2019-01-05T14:59:25.583Z,9.48
2019-01-05T15:00:25.706Z,9.52
2019-01-05T15:01:26.820Z,9.52
2019-01-05T15:02:25.859Z,9.49
2019-01-05T15:03:25.055Z,9.51
2019-01-05T15:04:26.173Z,9.52
2019-01-05T15:05:26.466Z,9.59
2019-01-05T15:06:26.028Z,9.56
2019-01-05T15:07:26.002Z,9.55
2019-01-05T15:08:25.645Z,9.66
2019-01-05T15:09:25.524Z,9.59
2019-01-05T15:10:25.137Z,9.62
2019-01-05T15:11:25.320Z,9.66
2019-01-05T15:12:25.723Z,9.59
2019-01-05T15:13:25.050Z,9.55
2019-01-05T15:14:25.090Z,9.58
2019-01-05T15:15:30.140Z,9.59
2019-01-05T15:16:26.748Z,9.63
2019-01-05T15:17:26.151Z,9.52
2019-01-05T15:18:25.151Z,9.58
2019-01-05T15:19:25.509Z,9.62
2019-01-05T15:20:25.458Z,9.63
2019-01-05T15:21:25.058Z,9.54
2019-01-05T15:22:25.434Z,9.54
2019-01-05T15:23:27.171Z,9.63
2019-01-05T15:24:25.260Z,9.55
2019-01-05T15:25:25.129Z,9.58
2019-01-05T15:26:25.145Z,9.52
2019-01-05T15:27:25.156Z,9.56
2019-01-05T15:28:25.126Z,9.62
2019-01-05T15:29:25.225Z,9.45
2019-01-05T15:30:26.775Z,9.47
2019-01-05T15:31:25.131Z,9.56
2019-01-05T15:32:25.136Z,9.54
2019-01-05T15:33:25.494Z,9.59
2019-01-05T15:34:25.174Z,9.58
2019-01-05T15:35:25.244Z,9.54
2019-01-05T15:36:25.296Z,9.56
2019-01-05T15:37:25.183Z,9.54
2019-01-05T15:38:25.203Z,9.54
2019-01-05T15:39:25.485Z,9.56
2019-01-05T15:40:25.354Z,9.56
2019-01-05T15:41:25.516Z,9.59
2019-01-05T15:42:25.313Z,9.58
2019-01-05T15:43:25.304Z,9.56
2019-01-05T15:44:25.604Z,9.62